Rio Cuarto, Argentina

4:52 PM ART on November 27, 2014 (GMT -0300)
Area De Material | Change Station
CLOSE
Current Station
Airport
Location: Rio Cuarto,
Elevation: 1381 ft
Nearby Weather Stations

Elev 1381 ft 33.12 °S, 64.23 °W | Updated 52 minutes ago

Mostly Cloudy
Mostly Cloudy
91 °F
Feels Like 91 °F
N
26
Wind Variable Wind from NNW
Gusts 39 mph

Today
High -- | Low -- °F
--% Chance of Precip.
Yesterday
High -- | Low -- °F
Precip. -- in
6:01 AM 8:07 PM
Waxing Crescent, 32% visible
Pressure 29.83 in
Visibility 6.2 miles
Clouds Few 3000 ft
Mostly Cloudy 20000 ft
Dew Point 41 °F
Humidity 17%
Rainfall 0.00 in
Snow Depth Not available.
UV 5 out of 12
Pollen Not available.
Air Quality Not available.
Flu Activity Not available.
METAR SAOC 271900Z 34023G34KT 9999 FEW030 BKN200 33/05 Q1010

More Conditions Fewer Conditions

Pressure 29.83 in
Visibility 6.2 miles
Clouds Few 3000 ft
Mostly Cloudy 20000 ft
Dew Point 41 °F
Humidity 17%
Rainfall 0.00 in
Snow Depth Not available.
UV 5 out of 12
Pollen Not available.
Air Quality Not available.
Flu Activity Not available.
METAR SAOC 271900Z 34023G34KT 9999 FEW030 BKN200 33/05 Q1010

More Conditions Fewer Conditions

10-Day Weather Forecast

Almanac

Astronomy

Nov. 27, 2014 Rise Set
Actual Time
Civil Twilight
Nautical Twilight
Astronomical Twilight
Moon
Length of Visible Light
Length of Day
Tomorrow will be .
, % of the Moon is Illuminated

Today's Extremes

Country Highs Country Lows

Community

WunderPhotos

Upload Photos

1,774,094 photos uploaded!

WunderBlogs® & News

Nearby

Air Quality

  Air Quality AQ Index Pollutant
Not available.

Snow Depth

Station Depth Elevation

Earthquake Activity

City Distance Mag. Time & Date
Minimum magnitude displayed is 2.5.

Coastal Water Temperatures

Place Temperature

Nearby Weather Stations